Time;durP1;ratioP1;P1;durP2;ratioP2;P2;SDS_P1;SDS_P2;PMS_P1;PMS_P2;Temp;Humidity;BMP_temperature;BMP_pressure;BME280_temperature;BME280_humidity;BME280_pressure;Samples;Min_cycle;Max_cycle;Signal;HPM_P1;HPM_P2
2022/06/20 00:00:23;;;;;;;7.10;6.60;;;;;;;-143.84;88.44;45058.59;5091562;28;20440;-77
2022/06/20 00:02:54;;;;;;;7.03;6.43;;;;;;;-143.84;88.23;45079.53;5091680;28;20417;-78
2022/06/20 00:05:24;;;;;;;7.20;6.53;;;;;;;-143.84;88.36;45056.69;5092262;28;20440;-77
2022/06/20 00:07:52;;;;;;;7.00;6.40;;;;;;;-143.84;88.16;45035.75;5091677;28;20432;-77
2022/06/20 00:10:23;;;;;;;6.77;6.30;;;;;;;-143.84;88.16;45064.31;5091613;28;21212;-77
2022/06/20 00:12:51;;;;;;;8.00;7.20;;;;;;;-143.84;88.64;45041.44;5092353;28;20432;-77
2022/06/20 00:15:24;;;;;;;8.60;7.57;;;;;;;-143.84;89.00;45066.22;5092118;28;20471;-77
2022/06/20 00:17:53;;;;;;;7.43;6.83;;;;;;;-143.84;89.25;45052.88;5092393;28;20423;-78
2022/06/20 00:20:21;;;;;;;7.37;6.67;;;;;;;-143.84;89.27;45058.59;5091857;28;20436;-78
2022/06/20 00:22:48;;;;;;;8.73;8.00;;;;;;;-143.84;89.50;45043.34;5092020;28;20994;-78
2022/06/20 00:25:16;;;;;;;7.93;7.33;;;;;;;-143.84;89.54;45035.75;5091475;28;20439;-77
2022/06/20 00:27:44;;;;;;;6.97;6.43;;;;;;;-143.84;90.01;45066.22;5091664;28;20534;-77
2022/06/20 00:30:13;;;;;;;7.80;7.20;;;;;;;-143.84;89.84;45056.69;5091782;28;20432;-77
2022/06/20 00:32:41;;;;;;;8.93;7.97;;;;;;;-143.84;89.61;45052.88;5091475;28;20532;-77
2022/06/20 00:35:11;;;;;;;9.70;6.87;;;;;;;-143.84;89.89;45058.59;5091527;28;20465;-77
2022/06/20 00:37:38;;;;;;;7.57;6.80;;;;;;;-143.84;89.79;45060.50;5091840;28;21306;-78
2022/06/20 00:40:20;;;;;;;8.07;7.20;;;;;;;-143.84;89.84;45060.50;5093407;28;20432;-78
2022/06/20 00:42:48;;;;;;;8.30;6.87;;;;;;;-143.84;89.29;45060.50;5095305;28;20488;-77
2022/06/20 00:45:17;;;;;;;7.33;6.67;;;;;;;-143.84;89.16;45070.00;5095213;28;20432;-77
2022/06/20 00:47:46;;;;;;;6.77;6.10;;;;;;;-143.84;88.90;45068.13;5095070;28;20530;-77
2022/06/20 00:50:19;;;;;;;8.23;6.70;;;;;;;-143.84;89.00;45077.63;5095258;28;20440;-77
2022/06/20 00:52:52;;;;;;;7.00;6.40;;;;;;;-143.84;88.63;45071.91;5094974;28;20432;-76
2022/06/20 00:55:23;;;;;;;16.23;7.10;;;;;;;-143.84;88.76;45071.91;5095154;28;20975;-76
2022/06/20 00:57:57;;;;;;;8.23;7.53;;;;;;;-143.84;89.07;45060.50;5094907;28;20436;-77
2022/06/20 01:00:29;;;;;;;7.93;7.23;;;;;;;-143.84;89.35;45047.16;5094518;28;20523;-77
2022/06/20 01:03:02;;;;;;;8.00;7.33;;;;;;;-143.84;89.39;45066.22;5095157;28;20461;-77
2022/06/20 01:05:36;;;;;;;7.63;7.03;;;;;;;-143.84;89.88;45049.06;5095392;28;20439;-77
2022/06/20 01:08:09;;;;;;;8.67;7.90;;;;;;;-143.84;90.23;45075.72;5095011;28;20866;-76
2022/06/20 01:10:51;;;;;;;8.50;7.70;;;;;;;-143.84;90.16;45064.31;5095169;28;20439;-77
2022/06/20 01:13:21;;;;;;;6.90;6.40;;;;;;;-143.84;90.08;45052.88;5074558;28;20425;-77
2022/06/20 01:15:51;;;;;;;7.27;6.67;;;;;;;-143.84;89.75;45075.72;5074074;28;20473;-77
2022/06/20 01:18:20;;;;;;;8.67;7.17;;;;;;;-143.84;90.01;45098.56;5074298;28;20433;-77
2022/06/20 01:20:50;;;;;;;8.53;7.67;;;;;;;-143.84;90.16;45075.72;5074295;28;20437;-77
2022/06/20 01:23:30;;;;;;;11.73;7.57;;;;;;;-143.84;90.16;45071.91;5074437;28;20429;-77
2022/06/20 01:26:13;;;;;;;8.30;7.37;;;;;;;-143.84;90.29;45066.22;5074573;28;20983;-77
2022/06/20 01:28:46;;;;;;;7.90;7.27;;;;;;;-143.84;90.21;45090.97;5074329;28;20471;-77
2022/06/20 01:31:16;;;;;;;8.30;7.70;;;;;;;-143.84;90.43;45049.06;5074273;28;20514;-77
2022/06/20 01:33:43;;;;;;;15.20;7.80;;;;;;;-143.84;90.58;45073.81;5073514;28;20505;-78
2022/06/20 01:39:00;;;;;;;8.57;7.87;;;;;;;-143.84;90.88;45052.88;5074095;28;20932;-77
2022/06/20 01:44:14;;;;;;;16.93;9.00;;;;;;;-143.84;91.65;45083.34;5074008;28;20408;-77
2022/06/20 01:46:41;;;;;;;17.40;9.90;;;;;;;-143.84;91.99;45089.06;5073634;28;20441;-75
2022/06/20 01:49:15;;;;;;;10.60;9.60;;;;;;;-143.84;92.50;45077.63;5073157;28;20445;-76
2022/06/20 01:51:48;;;;;;;12.53;8.77;;;;;;;-143.84;92.97;45081.44;5074108;28;20848;-76
2022/06/20 01:54:16;;;;;;;15.77;9.20;;;;;;;-143.84;92.94;45062.41;5073318;28;20436;-77
2022/06/20 01:56:46;;;;;;;12.30;9.30;;;;;;;-143.84;93.24;45043.34;5073469;28;20469;-77
2022/06/20 01:59:21;;;;;;;16.27;9.63;;;;;;;-143.84;93.41;45043.34;5073962;28;20490;-77
2022/06/20 02:01:49;;;;;;;11.33;10.10;;;;;;;-143.84;93.51;45083.34;5073832;28;20497;-77
2022/06/20 02:04:20;;;;;;;11.40;9.93;;;;;;;-143.84;93.34;45039.53;5074123;28;20425;-77
2022/06/20 02:06:48;;;;;;;12.10;10.97;;;;;;;-143.84;93.42;45077.63;5072884;28;20495;-77
2022/06/20 02:09:16;;;;;;;12.70;10.77;;;;;;;-143.84;93.42;45066.22;5073341;28;20490;-78
2022/06/20 02:11:45;;;;;;;13.73;10.53;;;;;;;-143.84;93.58;45068.13;5073737;28;20436;-78
2022/06/20 02:14:19;;;;;;;10.90;9.80;;;;;;;-143.84;93.49;45090.97;5073345;28;20457;-78
2022/06/20 02:16:50;;;;;;;12.40;10.37;;;;;;;-143.84;93.40;45058.59;5073608;28;20469;-77
2022/06/20 02:19:24;;;;;;;11.90;10.60;;;;;;;-143.84;93.51;45070.00;5073292;28;20482;-78
2022/06/20 02:21:56;;;;;;;11.57;10.37;;;;;;;-143.84;93.14;45090.97;5072749;28;20436;-77
2022/06/20 02:24:25;;;;;;;11.87;10.30;;;;;;;-143.84;93.13;45140.47;5073011;28;20589;-78
2022/06/20 02:26:57;;;;;;;10.63;9.30;;;;;;;-143.84;93.18;45060.50;5072852;28;20437;-78
2022/06/20 02:29:27;;;;;;;11.93;10.03;;;;;;;-143.84;92.73;45073.81;5072935;28;20443;-77
2022/06/20 02:31:58;;;;;;;10.50;9.37;;;;;;;-143.84;93.05;45064.31;5072753;28;20961;-78
2022/06/20 02:34:28;;;;;;;11.77;10.50;;;;;;;-143.84;92.99;45062.41;5073221;28;20441;-76
2022/06/20 02:36:57;;;;;;;11.80;10.57;;;;;;;-143.84;92.60;45079.53;5072970;28;21173;-77
2022/06/20 02:39:25;;;;;;;11.40;9.70;;;;;;;-143.84;92.90;45052.88;5072396;28;20433;-77
2022/06/20 02:41:58;;;;;;;10.73;9.73;;;;;;;-143.84;92.45;45077.63;5072781;28;20429;-77
2022/06/20 02:44:28;;;;;;;10.60;9.60;;;;;;;-143.84;91.89;45035.75;5072748;28;20506;-77
2022/06/20 02:46:57;;;;;;;11.50;10.30;;;;;;;-143.84;92.09;45064.31;5072622;28;20961;-77
2022/06/20 02:49:28;;;;;;;11.93;9.63;;;;;;;-143.84;92.45;45070.00;5072677;28;20449;-77
2022/06/20 02:51:58;;;;;;;10.53;9.67;;;;;;;-143.84;92.54;45075.72;5072836;28;20421;-77
2022/06/20 02:54:29;;;;;;;11.43;10.33;;;;;;;-143.84;92.52;45056.69;5072672;28;20444;-77
2022/06/20 02:57:01;;;;;;;9.77;8.90;;;;;;;-143.84;92.63;45060.50;5071707;28;20537;-75
2022/06/20 02:59:35;;;;;;;10.60;8.73;;;;;;;-143.84;92.70;45068.13;5072768;28;20480;-76
2022/06/20 03:02:07;;;;;;;10.57;9.57;;;;;;;-143.84;92.50;45085.25;5072152;28;20518;-77
2022/06/20 03:04:38;;;;;;;10.20;9.40;;;;;;;-143.84;92.74;45068.13;5072371;28;20494;-77
2022/06/20 03:07:13;;;;;;;10.77;9.67;;;;;;;-143.84;92.82;45087.16;5072364;28;20440;-76
2022/06/20 03:09:43;;;;;;;10.03;9.13;;;;;;;-143.84;93.05;45077.63;5072275;28;20437;-76
2022/06/20 03:12:11;;;;;;;10.00;8.80;;;;;;;-143.84;92.99;45052.88;5072008;28;20495;-77
2022/06/20 03:14:43;;;;;;;9.67;8.70;;;;;;;-143.84;92.48;45075.72;5072496;28;20445;-77
2022/06/20 03:17:13;;;;;;;7.90;7.27;;;;;;;-143.84;92.30;45068.13;5072204;28;20495;-75
2022/06/20 03:19:46;;;;;;;8.70;8.00;;;;;;;-143.84;92.29;45081.44;5076698;28;21365;-80
2022/06/20 03:22:17;;;;;;;10.90;9.90;;;;;;;-143.84;92.21;45050.97;5092019;28;20432;-73
2022/06/20 03:24:47;;;;;;;16.23;9.40;;;;;;;-143.84;92.38;45077.63;5092033;28;20855;-77
2022/06/20 03:27:21;;;;;;;10.93;10.00;;;;;;;-143.84;92.31;45068.13;5091662;28;20439;-76
2022/06/20 03:29:54;;;;;;;13.17;9.77;;;;;;;-143.84;92.24;45062.41;5091671;28;20434;-75
2022/06/20 03:32:23;;;;;;;12.60;10.27;;;;;;;-143.84;92.09;45058.59;5091958;28;20589;-76
2022/06/20 03:34:50;;;;;;;11.77;10.13;;;;;;;-143.84;92.54;45066.22;5091750;28;20443;-78
2022/06/20 03:37:18;;;;;;;11.83;10.20;;;;;;;-143.84;93.17;45060.50;5091511;28;20524;-77
2022/06/20 03:39:48;;;;;;;12.30;10.40;;;;;;;-143.84;93.10;45075.72;5091732;28;20439;-77
2022/06/20 03:42:16;;;;;;;10.60;8.70;;;;;;;-143.84;92.52;45050.97;5091184;28;20448;-75
2022/06/20 03:44:50;;;;;;;9.03;8.10;;;;;;;-143.84;92.14;45054.78;5091172;28;20440;-76
2022/06/20 03:47:24;;;;;;;8.17;7.37;;;;;;;-143.84;89.45;45064.31;5091870;28;20498;-75
2022/06/20 03:49:59;;;;;;;6.50;6.00;;;;;;;-143.84;85.41;45026.22;5092285;28;20436;-75
2022/06/20 03:52:30;;;;;;;10.67;5.90;;;;;;;-143.84;81.42;45030.03;5092378;28;20946;-75
2022/06/20 03:55:03;;;;;;;7.13;6.03;;;;;;;-143.84;77.54;44999.56;5091904;28;20449;-75
2022/06/20 03:57:36;;;;;;;5.83;5.33;;;;;;;-143.84;73.51;45031.94;5092464;28;20518;-75
2022/06/20 04:00:08;;;;;;;6.07;5.57;;;;;;;-143.84;69.93;45012.88;5092015;28;20494;-75
2022/06/20 04:02:42;;;;;;;5.03;4.70;;;;;;;-143.84;67.16;45014.78;5091548;28;20436;-75
2022/06/20 04:05:13;;;;;;;5.40;5.00;;;;;;;-143.84;65.13;44993.84;5090930;28;20924;-76
2022/06/20 04:07:46;;;;;;;7.73;4.40;;;;;;;-143.84;63.10;44984.31;5090331;28;20432;-76
2022/06/20 04:13:08;;;;;;;13.30;3.70;;;;;;;-143.84;59.94;44955.75;5087860;28;20442;-75
2022/06/20 04:15:40;;;;;;;5.00;3.77;;;;;;;-143.84;58.32;44971.00;5092879;28;20500;-76
2022/06/20 04:18:30;;;;;;;8.80;4.00;;;;;;;-143.84;58.25;44972.91;5094319;28;20506;-76
2022/06/20 04:21:06;;;;;;;5.83;3.20;;;;;;;-143.84;56.81;44965.28;5094611;28;20432;-76
2022/06/20 04:23:38;;;;;;;4.47;4.17;;;;;;;-143.84;56.60;44942.44;5095450;28;20484;-76
2022/06/20 04:26:11;;;;;;;5.43;4.00;;;;;;;-143.84;56.43;44980.53;5094935;28;20961;-76
2022/06/20 04:28:43;;;;;;;4.63;3.73;;;;;;;-143.84;56.45;44967.19;5095037;28;20452;-76
2022/06/20 04:31:18;;;;;;;3.93;3.40;;;;;;;-143.84;55.59;44974.81;5095015;28;20428;-76
2022/06/20 04:33:55;;;;;;;3.50;2.80;;;;;;;-143.84;55.24;44955.75;5094646;28;20562;-76
2022/06/20 04:36:39;;;;;;;4.83;3.67;;;;;;;-143.84;54.52;44959.56;5094580;28;20486;-76
2022/06/20 04:39:14;;;;;;;4.00;3.43;;;;;;;-143.84;53.58;44978.63;5094857;28;20912;-76
2022/06/20 04:41:45;;;;;;;3.83;3.50;;;;;;;-143.84;52.15;44969.09;5094979;28;20508;-76
2022/06/20 04:44:21;;;;;;;3.63;3.33;;;;;;;-143.84;52.16;44969.09;5094440;28;20436;-76
2022/06/20 04:46:53;;;;;;;3.10;2.80;;;;;;;-143.84;53.12;44971.00;5094455;28;20432;-76
2022/06/20 04:49:22;;;;;;;3.10;2.90;;;;;;;-143.84;53.15;44959.56;5094892;28;20436;-76
2022/06/20 04:51:52;;;;;;;3.83;3.20;;;;;;;-143.84;52.53;44971.00;5094795;28;20432;-76
2022/06/20 04:54:22;;;;;;;5.23;3.60;;;;;;;-143.84;52.79;44957.66;5094267;28;20432;-76
2022/06/20 04:56:52;;;;;;;3.57;3.27;;;;;;;-143.84;52.80;44950.06;5095018;28;20483;-76
2022/06/20 04:59:23;;;;;;;4.17;3.70;;;;;;;-143.84;53.19;44961.47;5094443;28;20440;-76
2022/06/20 05:01:51;;;;;;;3.10;2.90;;;;;;;-143.84;53.89;44972.91;5093925;28;20448;-76
2022/06/20 05:04:31;;;;;;;3.97;3.17;;;;;;;-143.84;52.53;44969.09;5094316;28;20489;-75
2022/06/20 05:07:02;;;;;;;2.80;2.60;;;;;;;-143.84;52.13;44976.72;5094114;28;20440;-76
2022/06/20 05:09:42;;;;;;;3.60;3.30;;;;;;;-143.84;51.69;44971.00;5094036;28;20436;-76
2022/06/20 05:12:17;;;;;;;10.43;4.17;;;;;;;-143.84;51.32;44995.75;5093814;28;20456;-76
2022/06/20 05:14:53;;;;;;;3.73;3.40;;;;;;;-143.84;51.67;44993.84;5093914;28;20439;-76
2022/06/20 05:17:23;;;;;;;4.33;3.03;;;;;;;-143.84;52.41;44971.00;5093846;28;20471;-76
2022/06/20 05:19:55;;;;;;;3.70;3.13;;;;;;;-143.84;52.47;44974.81;5094231;28;20428;-75
2022/06/20 05:22:28;;;;;;;4.90;3.50;;;;;;;-143.84;53.04;44997.66;5094033;28;20489;-75
2022/06/20 05:24:58;;;;;;;3.40;3.03;;;;;;;-143.84;53.12;44978.63;5093532;28;20952;-75
2022/06/20 05:27:28;;;;;;;9.10;3.40;;;;;;;-143.84;54.68;44986.22;5093416;28;20451;-75
2022/06/20 05:30:00;;;;;;;4.50;3.67;;;;;;;-143.84;55.52;44982.41;5093515;28;20519;-76
2022/06/20 05:32:37;;;;;;;3.80;3.50;;;;;;;-143.84;56.85;44971.00;5093327;28;20494;-75
2022/06/20 05:35:09;;;;;;;7.00;3.43;;;;;;;-143.84;56.72;44990.03;5093466;28;20436;-75
2022/06/20 05:37:43;;;;;;;4.13;3.33;;;;;;;-143.84;56.57;44969.09;5093647;28;20877;-75
2022/06/20 05:40:17;;;;;;;5.63;3.20;;;;;;;-143.84;56.39;44963.38;5093544;28;20421;-75
2022/06/20 05:42:44;;;;;;;3.50;3.30;;;;;;;-143.84;55.60;44972.91;5093481;28;20432;-75
2022/06/20 05:45:16;;;;;;;3.20;3.00;;;;;;;-143.84;54.66;44993.84;5093436;28;20436;-75
2022/06/20 05:47:49;;;;;;;3.33;3.13;;;;;;;-143.84;54.41;44972.91;5093288;28;20524;-75
2022/06/20 05:50:40;;;;;;;8.23;3.00;;;;;;;-143.84;54.27;44971.00;5093312;28;20451;-75
2022/06/20 05:53:14;;;;;;;5.03;2.80;;;;;;;-143.84;53.46;44978.63;5093226;28;20486;-75
2022/06/20 05:55:44;;;;;;;2.80;2.60;;;;;;;-143.84;52.35;44927.19;5093052;28;20921;-76
2022/06/20 05:58:18;;;;;;;5.73;3.13;;;;;;;-143.84;52.76;44982.41;5092852;28;20936;-76
2022/06/20 06:00:47;;;;;;;2.90;2.73;;;;;;;-143.84;51.79;44950.06;5092713;28;20485;-76
2022/06/20 06:03:18;;;;;;;4.13;3.60;;;;;;;-143.84;50.67;44946.25;5093227;28;20434;-76
2022/06/20 06:05:50;;;;;;;2.73;2.60;;;;;;;-143.84;50.30;44951.97;5093429;28;20497;-76
2022/06/20 06:08:24;;;;;;;6.27;3.27;;;;;;;-143.84;50.95;44982.41;5092501;28;20872;-76
2022/06/20 06:10:57;;;;;;;6.60;3.00;;;;;;;-143.84;52.33;44961.47;5092711;28;20432;-76
2022/06/20 06:13:36;;;;;;;4.50;2.83;;;;;;;-143.84;51.54;44946.25;5092843;28;20435;-76
2022/06/20 06:19:03;;;;;;;3.70;2.70;;;;;;;-143.84;49.48;44950.06;5092437;28;20478;-76
2022/06/20 06:21:34;;;;;;;5.70;3.03;;;;;;;-143.84;48.90;44950.06;5092538;28;20439;-76
2022/06/20 06:24:03;;;;;;;3.90;3.13;;;;;;;-143.84;48.20;44934.81;5092620;28;20444;-76
2022/06/20 06:26:30;;;;;;;3.90;2.40;;;;;;;-143.84;47.63;44934.81;5092490;28;20437;-76
2022/06/20 06:28:57;;;;;;;3.63;3.23;;;;;;;-143.84;46.60;44946.25;5092557;28;20439;-76
2022/06/20 06:31:29;;;;;;;3.57;3.27;;;;;;;-143.84;46.26;44917.69;5092376;28;20940;-76
2022/06/20 06:34:01;;;;;;;8.00;2.67;;;;;;;-143.84;46.66;44951.97;5051714;28;20433;-76
2022/06/20 06:36:39;;;;;;;2.93;2.47;;;;;;;-143.84;45.20;44923.41;5052419;28;20943;-76
2022/06/20 06:39:13;;;;;;;3.03;2.93;;;;;;;-143.84;45.91;44921.50;5052029;28;20887;-76
2022/06/20 06:41:48;;;;;;;5.40;2.73;;;;;;;-143.84;46.43;44946.25;5052304;28;20942;-76
2022/06/20 06:44:19;;;;;;;3.40;3.10;;;;;;;-143.84;47.08;44908.16;5052056;28;20433;-76
2022/06/20 06:46:49;;;;;;;4.23;2.57;;;;;;;-143.84;47.20;44953.88;5051896;28;20958;-76
2022/06/20 06:49:25;;;;;;;2.70;2.50;;;;;;;-143.84;46.24;44923.41;5051555;28;20950;-75
2022/06/20 06:52:01;;;;;;;3.43;2.77;;;;;;;-143.84;46.71;44925.31;5050438;28;20510;-75
2022/06/20 06:54:46;;;;;;;4.60;3.20;;;;;;;-143.84;45.78;44940.53;5049880;28;20446;-75
2022/06/20 06:57:19;;;;;;;6.80;3.30;;;;;;;-143.84;45.38;44931.00;5050270;28;20449;-75
2022/06/20 06:59:52;;;;;;;4.03;2.67;;;;;;;-143.84;44.88;44953.88;5050365;28;20519;-75
2022/06/20 07:02:22;;;;;;;3.40;2.97;;;;;;;-143.84;44.63;44913.88;5049905;28;20448;-75
2022/06/20 07:04:55;;;;;;;3.33;3.03;;;;;;;-143.84;45.18;44940.53;5049942;28;20426;-75
2022/06/20 07:07:29;;;;;;;3.30;2.63;;;;;;;-143.84;43.84;44940.53;5050092;28;20476;-75
2022/06/20 07:09:57;;;;;;;4.57;2.40;;;;;;;-143.84;43.74;44915.78;5049766;28;20472;-75
2022/06/20 07:12:30;;;;;;;4.27;3.00;;;;;;;-143.84;44.21;44904.34;5050304;28;20442;-75
2022/06/20 07:15:05;;;;;;;12.53;2.30;;;;;;;-143.84;42.52;44932.91;5049988;28;20499;-75
2022/06/20 07:17:39;;;;;;;2.40;2.30;;;;;;;-143.84;43.77;44917.69;5049308;28;20535;-75
2022/06/20 07:20:08;;;;;;;2.50;2.30;;;;;;;-143.84;43.02;44934.81;5049978;28;20445;-75
2022/06/20 07:22:40;;;;;;;3.10;2.73;;;;;;;-143.84;42.50;44915.78;5049916;28;20973;-75
2022/06/20 07:25:15;;;;;;;2.90;2.70;;;;;;;-143.84;41.70;44919.59;5049999;28;20448;-75
2022/06/20 07:27:48;;;;;;;2.63;2.43;;;;;;;-143.84;41.16;44898.66;5049816;28;20445;-75
2022/06/20 07:30:19;;;;;;;2.60;2.40;;;;;;;-143.84;42.79;44923.41;5050300;28;20442;-75
2022/06/20 07:32:50;;;;;;;3.60;3.30;;;;;;;-143.84;42.06;44932.91;5070652;28;20926;-75
2022/06/20 07:35:22;;;;;;;3.93;2.90;;;;;;;-143.84;42.31;44927.19;5090194;28;20497;-75
2022/06/20 07:37:54;;;;;;;3.63;2.67;;;;;;;-143.84;41.16;44940.53;5089856;28;20896;-75
2022/06/20 07:40:26;;;;;;;8.20;2.37;;;;;;;-143.84;41.54;44902.44;5090465;28;20451;-75
2022/06/20 07:42:57;;;;;;;3.20;2.90;;;;;;;-143.84;41.59;44931.00;5090647;28;20861;-75
2022/06/20 07:45:30;;;;;;;3.70;2.30;;;;;;;-143.84;40.40;44934.81;5090267;28;20448;-75
2022/06/20 07:48:02;;;;;;;3.20;2.20;;;;;;;-143.84;39.00;44896.75;5090222;28;20448;-75
2022/06/20 07:50:35;;;;;;;3.50;2.57;;;;;;;-143.84;37.61;44925.31;5094447;28;20432;-75
2022/06/20 07:53:11;;;;;;;5.30;2.07;;;;;;;-143.84;36.93;44934.81;5094470;28;20428;-75
2022/06/20 07:55:42;;;;;;;2.90;2.20;;;;;;;-143.84;38.09;44892.94;5094846;28;20506;-76
2022/06/20 07:58:16;;;;;;;2.13;1.80;;;;;;;-143.84;36.13;44900.53;5095581;28;20463;-76
2022/06/20 08:00:48;;;;;;;2.87;2.23;;;;;;;-143.84;37.92;44911.97;5095636;28;20527;-76
2022/06/20 08:03:22;;;;;;;3.83;2.40;;;;;;;-143.84;37.22;44900.53;5095416;28;20477;-76
2022/06/20 08:05:55;;;;;;;4.30;2.37;;;;;;;-143.84;37.22;44915.78;5095634;28;20424;-76
2022/06/20 08:08:28;;;;;;;3.33;2.30;;;;;;;-143.84;36.17;44910.06;5095216;28;20435;-76
2022/06/20 08:11:00;;;;;;;2.40;2.20;;;;;;;-143.84;36.88;44887.22;5095213;28;20444;-76
2022/06/20 08:13:34;;;;;;;3.57;2.30;;;;;;;-143.84;37.17;44898.66;5094926;28;20856;-76
2022/06/20 08:16:08;;;;;;;2.90;2.10;;;;;;;-143.84;37.24;44891.03;5095403;28;20493;-76
2022/06/20 08:18:35;;;;;;;2.10;1.90;;;;;;;-143.84;36.92;44904.34;5095504;28;20467;-76
2022/06/20 08:21:08;;;;;;;1.53;1.43;;;;;;;-143.84;37.18;44904.34;5095034;28;20810;-76
2022/06/20 08:23:44;;;;;;;4.83;2.17;;;;;;;-143.84;36.31;44911.97;5095360;28;20800;-76
2022/06/20 08:26:16;;;;;;;4.40;2.37;;;;;;;-143.84;37.78;44913.88;5095308;28;20488;-76
2022/06/20 08:28:49;;;;;;;2.97;2.53;;;;;;;-143.84;37.07;44906.25;5095172;28;20428;-76
2022/06/20 08:31:22;;;;;;;2.50;2.30;;;;;;;-143.84;36.29;44910.06;5094458;28;20493;-76
2022/06/20 08:33:56;;;;;;;3.23;2.90;;;;;;;-143.84;36.11;44921.50;5093062;28;20471;-76
2022/06/20 08:36:29;;;;;;;4.53;2.67;;;;;;;-143.84;38.09;44938.63;5092418;28;20499;-76
2022/06/20 08:39:03;;;;;;;2.37;2.17;;;;;;;-143.84;37.87;44902.44;5092859;28;21019;-76
2022/06/20 08:41:58;;;;;;;2.93;2.40;;;;;;;-143.84;37.95;44913.88;5094244;28;20527;-76
2022/06/20 08:44:42;;;;;;;4.43;2.60;;;;;;;-143.84;37.98;44940.53;5094082;28;20431;-76
2022/06/20 08:48:06;;;;;;;2.37;2.20;;;;;;;-143.84;38.24;44898.66;5094270;28;20452;-76
2022/06/20 08:50:52;;;;;;;4.20;2.80;;;;;;;-143.84;39.66;44929.09;5094272;28;20432;-76
2022/06/20 08:54:11;;;;;;;6.63;2.27;;;;;;;-143.84;40.38;44927.19;5094401;28;20432;-76
2022/06/20 08:56:52;;;;;;;3.97;2.43;;;;;;;-143.84;39.56;44919.59;5094658;28;20435;-76
2022/06/20 08:59:48;;;;;;;2.53;2.33;;;;;;;-143.84;38.75;44904.34;5094335;28;20476;-76
2022/06/20 09:02:39;;;;;;;2.30;2.07;;;;;;;-143.84;38.96;44913.88;5093902;28;20424;-76
2022/06/20 09:05:30;;;;;;;3.40;2.47;;;;;;;-143.84;39.96;44927.19;5094614;28;20998;-76
2022/06/20 09:08:31;;;;;;;2.60;2.40;;;;;;;-143.84;38.69;44948.16;5093822;28;20532;-76
2022/06/20 09:11:14;;;;;;;2.40;2.20;;;;;;;-143.84;37.80;44921.50;5091753;28;20455;-75
2022/06/20 09:14:16;;;;;;;2.23;1.60;;;;;;;-143.84;37.47;44938.63;5092428;28;20509;-75
2022/06/20 09:16:53;;;;;;;8.63;3.23;;;;;;;-143.84;38.78;44929.09;5092228;28;20443;-76
2022/06/20 09:19:44;;;;;;;2.43;2.33;;;;;;;-143.84;38.96;44917.69;5092011;28;20483;-76
2022/06/20 09:22:24;;;;;;;2.33;2.23;;;;;;;-143.84;39.39;44921.50;5092078;28;20444;-76
2022/06/20 09:25:03;;;;;;;2.63;2.43;;;;;;;-143.84;40.46;44917.69;5093327;28;20441;-75
2022/06/20 09:27:42;;;;;;;4.27;2.50;;;;;;;-143.84;42.06;44929.09;5093748;28;21166;-77
2022/06/20 09:30:14;;;;;;;9.30;2.80;;;;;;;-143.84;40.91;44932.91;5094274;28;20794;-77
2022/06/20 09:33:10;;;;;;;2.80;2.60;;;;;;;-143.84;39.60;44961.47;5093259;28;20491;-75
2022/06/20 09:36:05;;;;;;;2.13;1.93;;;;;;;-143.84;40.74;44942.44;5051286;28;20444;-76
2022/06/20 09:38:44;;;;;;;11.47;2.87;;;;;;;-143.84;41.14;44911.97;5093425;28;20483;-76
2022/06/20 09:41:26;;;;;;;2.53;2.33;;;;;;;-143.84;40.72;44910.06;5093606;28;20436;-75
2022/06/20 09:44:05;;;;;;;3.63;2.43;;;;;;;-143.84;41.65;44927.19;5092308;28;20550;-75
2022/06/20 09:46:41;;;;;;;3.03;2.83;;;;;;;-143.84;42.10;44934.81;5085025;28;20450;-77
2022/06/20 09:49:20;;;;;;;3.43;2.47;;;;;;;-143.84;42.96;44921.50;5081333;28;21281;-75
2022/06/20 09:51:56;;;;;;;2.90;2.60;;;;;;;-143.84;43.10;44885.31;5081661;28;20452;-77
2022/06/20 09:54:31;;;;;;;3.37;3.10;;;;;;;-143.84;42.59;44923.41;5080344;28;20454;-77
2022/06/20 09:57:08;;;;;;;3.20;2.37;;;;;;;-143.84;43.61;44900.53;5079987;28;20461;-75
2022/06/20 09:59:44;;;;;;;2.93;2.73;;;;;;;-143.84;43.28;44931.00;5082258;28;20481;-75
2022/06/20 10:02:20;;;;;;;3.80;3.40;;;;;;;-143.84;44.97;44940.53;5081917;28;20458;-75
2022/06/20 10:04:57;;;;;;;3.60;2.67;;;;;;;-143.84;45.04;44932.91;5079488;28;20443;-73
2022/06/20 10:07:30;;;;;;;2.80;2.60;;;;;;;-143.84;46.46;44946.25;5078889;28;20450;-73
2022/06/20 10:10:06;;;;;;;3.30;3.00;;;;;;;-143.84;46.58;44911.97;5080339;28;20459;-73
2022/06/20 10:12:41;;;;;;;2.90;2.70;;;;;;;-143.84;46.59;44931.00;5079698;28;20439;-73
2022/06/20 10:15:17;;;;;;;3.83;2.73;;;;;;;-143.84;46.39;44923.41;5080394;28;21376;-73
2022/06/20 10:17:52;;;;;;;7.87;2.90;;;;;;;-143.84;47.20;44917.69;5078273;28;20442;-75
2022/06/20 10:20:31;;;;;;;4.03;2.87;;;;;;;-143.84;49.26;44929.09;5079738;28;20467;-75
2022/06/20 10:23:10;;;;;;;4.53;2.70;;;;;;;-143.84;46.84;44931.00;5080919;28;20439;-72
2022/06/20 10:25:58;;;;;;;3.47;2.87;;;;;;;-143.84;49.00;44948.16;5080201;28;20448;-73
2022/06/20 10:28:36;;;;;;;2.50;2.30;;;;;;;-143.84;47.52;44915.78;5079138;28;20459;-75
2022/06/20 10:31:09;;;;;;;3.23;2.70;;;;;;;-143.84;47.38;44931.00;5081086;28;20690;-75
2022/06/20 10:33:52;;;;;;;2.60;2.50;;;;;;;-143.84;47.43;44913.88;5080885;28;20486;-75
2022/06/20 10:36:22;;;;;;;4.23;2.40;;;;;;;-143.84;47.00;44944.34;5077916;28;20828;-77
2022/06/20 10:39:08;;;;;;;2.93;2.47;;;;;;;-143.84;49.67;44932.91;5079944;28;20844;-75
2022/06/20 10:41:47;;;;;;;3.33;2.40;;;;;;;-143.84;50.83;44959.56;5080708;28;20544;-75
2022/06/20 10:44:23;;;;;;;2.60;2.40;;;;;;;-143.84;50.22;44955.75;5083194;28;20440;-73
2022/06/20 10:47:06;;;;;;;4.67;2.50;;;;;;;-143.84;48.96;44953.88;5080649;28;20539;-73
2022/06/20 10:49:52;;;;;;;2.67;2.47;;;;;;;-143.84;49.57;44940.53;5080285;28;20448;-73
2022/06/20 10:52:39;;;;;;;3.93;2.70;;;;;;;-143.84;53.55;44951.97;5080100;28;20649;-72
2022/06/20 10:55:20;;;;;;;3.10;2.43;;;;;;;-143.84;53.41;44925.31;5079569;28;20631;-73
2022/06/20 10:57:59;;;;;;;2.83;2.33;;;;;;;-143.84;51.34;44940.53;5077454;28;20447;-73
2022/06/20 11:00:29;;;;;;;4.30;2.70;;;;;;;-143.84;53.63;44940.53;5078908;28;20501;-73
2022/06/20 11:03:20;;;;;;;3.23;2.43;;;;;;;-143.84;53.65;44957.66;5079893;28;20973;-73
2022/06/20 11:05:53;;;;;;;4.43;2.80;;;;;;;-143.84;53.19;44936.72;5077857;28;20452;-73
2022/06/20 11:08:34;;;;;;;6.17;3.13;;;;;;;-143.84;50.88;44951.97;5078674;28;20432;-73
2022/06/20 11:11:15;;;;;;;3.13;2.83;;;;;;;-143.84;49.93;44948.16;5079264;28;20448;-73
2022/06/20 11:13:50;;;;;;;3.47;3.17;;;;;;;-143.84;52.24;44946.25;5079547;28;20882;-73
2022/06/20 11:16:28;;;;;;;9.20;3.23;;;;;;;-143.84;54.23;44953.88;5077351;28;20443;-74
2022/06/20 11:19:11;;;;;;;6.60;2.87;;;;;;;-143.84;54.97;44934.81;5079515;28;21005;-77
2022/06/20 11:21:47;;;;;;;5.00;3.30;;;;;;;-143.84;54.37;44961.47;5080205;28;20454;-75
2022/06/20 11:24:32;;;;;;;4.60;2.40;;;;;;;-143.84;55.74;44942.44;5077576;28;20431;-72
2022/06/20 11:27:15;;;;;;;4.00;3.10;;;;;;;-143.84;53.85;44963.38;5078812;28;20436;-72
2022/06/20 11:29:56;;;;;;;3.30;3.10;;;;;;;-143.84;53.32;44953.88;5079988;28;20442;-71
2022/06/20 11:32:30;;;;;;;3.27;3.07;;;;;;;-143.84;54.02;44950.06;5078545;28;20491;-72
2022/06/20 11:35:19;;;;;;;8.43;2.80;;;;;;;-143.84;51.81;44957.66;5079664;28;20505;-72
2022/06/20 11:38:02;;;;;;;3.77;2.67;;;;;;;-143.84;54.03;44955.75;5078024;28;20444;-72
2022/06/20 11:40:40;;;;;;;4.37;3.30;;;;;;;-143.84;56.44;44967.19;5079556;28;20844;-72
2022/06/20 11:43:37;;;;;;;3.33;2.73;;;;;;;-143.84;53.17;44938.63;5079558;28;20448;-72
2022/06/20 11:46:26;;;;;;;4.70;2.50;;;;;;;-143.84;55.00;44959.56;5080375;28;20458;-70
2022/06/20 11:49:05;;;;;;;3.00;2.70;;;;;;;-143.84;53.82;44969.09;5082321;28;20522;-73
2022/06/20 11:51:49;;;;;;;3.43;2.50;;;;;;;-143.84;54.16;44953.88;5082985;28;20450;-73
2022/06/20 11:54:26;;;;;;;2.83;2.50;;;;;;;-143.84;53.58;44931.00;5081533;28;20451;-72
2022/06/20 11:56:59;;;;;;;3.67;2.23;;;;;;;-143.84;52.21;44957.66;5078300;28;20443;-75
2022/06/20 11:59:36;;;;;;;2.90;2.70;;;;;;;-143.84;54.58;45003.38;5079169;28;20464;-74